createdAt,value
2023-05-25T00:00:49.788Z,10.32
2023-05-25T00:03:27.919Z,12.40
2023-05-25T00:05:54.636Z,11.40
2023-05-25T00:08:21.265Z,9.10
2023-05-25T00:10:48.545Z,6.93
2023-05-25T00:13:15.018Z,7.82
2023-05-25T00:15:41.575Z,13.13
2023-05-25T00:18:08.247Z,12.17
2023-05-25T00:20:35.405Z,10.35
2023-05-25T00:23:02.495Z,11.57
2023-05-25T00:25:29.590Z,7.65
2023-05-25T00:27:56.188Z,8.75
2023-05-25T00:30:22.746Z,12.37
2023-05-25T00:32:49.276Z,7.60
2023-05-25T00:35:15.857Z,12.27
2023-05-25T00:37:42.380Z,9.93
2023-05-25T00:40:14.203Z,12.30
2023-05-25T00:42:41.092Z,14.33
2023-05-25T00:45:08.113Z,10.82
2023-05-25T00:47:34.639Z,7.18
2023-05-25T00:50:02.077Z,9.52
2023-05-25T00:52:28.868Z,6.05
2023-05-25T00:54:58.242Z,7.47
2023-05-25T00:57:28.072Z,6.28
2023-05-25T00:59:58.016Z,7.32
2023-05-25T01:02:26.369Z,9.02
2023-05-25T01:04:59.792Z,9.13
2023-05-25T01:07:28.461Z,12.63
2023-05-25T01:10:00.076Z,7.30
2023-05-25T01:12:32.090Z,9.20
2023-05-25T01:15:00.534Z,8.70
2023-05-25T01:17:29.063Z,12.15
2023-05-25T01:20:09.651Z,11.77
2023-05-25T01:23:02.764Z,6.90
2023-05-25T01:25:45.043Z,5.88
2023-05-25T01:28:18.462Z,9.43
2023-05-25T01:30:48.776Z,8.05
2023-05-25T01:33:20.111Z,10.83
2023-05-25T01:35:47.808Z,11.50
2023-05-25T01:38:15.030Z,15.52
2023-05-25T01:40:41.556Z,9.20
2023-05-25T01:43:08.023Z,6.45
2023-05-25T01:45:35.527Z,12.20
2023-05-25T01:48:12.953Z,10.57
2023-05-25T01:50:51.499Z,11.05
2023-05-25T01:53:30.487Z,10.90
2023-05-25T01:56:01.349Z,9.82
2023-05-25T01:58:34.892Z,7.30
2023-05-25T02:01:04.368Z,7.45
2023-05-25T02:03:31.256Z,8.52
2023-05-25T02:05:58.281Z,12.90
2023-05-25T02:08:24.887Z,10.50
2023-05-25T02:10:51.489Z,9.07
2023-05-25T02:13:18.166Z,10.73
2023-05-25T02:15:44.855Z,12.10
2023-05-25T02:18:13.706Z,7.57
2023-05-25T02:20:40.503Z,10.02
2023-05-25T02:23:07.111Z,9.13
2023-05-25T02:25:35.917Z,12.73
2023-05-25T02:28:02.453Z,11.63
2023-05-25T02:30:28.898Z,9.88
2023-05-25T02:32:56.546Z,6.10
2023-05-25T02:35:23.269Z,8.97
2023-05-25T02:37:51.141Z,11.07
2023-05-25T02:40:17.998Z,6.68
2023-05-25T02:42:44.782Z,6.68
2023-05-25T02:45:11.566Z,8.00
2023-05-25T02:47:38.276Z,17.67
2023-05-25T02:50:05.807Z,16.85
2023-05-25T02:52:32.707Z,17.95
2023-05-25T02:54:59.249Z,13.88
2023-05-25T02:57:25.940Z,10.32
2023-05-25T02:59:52.758Z,10.97
2023-05-25T03:02:21.058Z,10.00
2023-05-25T03:04:49.828Z,12.02
2023-05-25T03:07:16.420Z,7.75
2023-05-25T03:09:42.971Z,9.93
2023-05-25T03:12:09.462Z,8.83
2023-05-25T03:14:35.912Z,8.93
2023-05-25T03:17:02.384Z,12.00
2023-05-25T03:19:28.871Z,9.38
2023-05-25T03:21:55.436Z,13.05
2023-05-25T03:24:24.210Z,12.77
2023-05-25T03:26:51.039Z,10.60
2023-05-25T03:29:17.585Z,9.93
2023-05-25T03:31:44.057Z,9.13
2023-05-25T03:34:10.634Z,11.65
2023-05-25T03:36:38.931Z,11.60
2023-05-25T03:39:07.076Z,14.50
2023-05-25T03:41:33.551Z,21.30
2023-05-25T03:43:59.986Z,9.57
2023-05-25T03:46:26.541Z,12.30
2023-05-25T03:48:56.034Z,7.20
2023-05-25T03:51:22.625Z,9.40
2023-05-25T03:53:49.078Z,13.50
2023-05-25T03:56:15.609Z,8.13
2023-05-25T03:58:42.071Z,7.75
2023-05-25T04:01:10.421Z,11.07
2023-05-25T04:03:37.214Z,12.88
2023-05-25T04:06:04.161Z,9.52
2023-05-25T04:08:30.718Z,9.15
2023-05-25T04:10:57.468Z,10.30
2023-05-25T04:13:24.826Z,12.10
2023-05-25T04:15:51.368Z,11.48
2023-05-25T04:18:19.049Z,9.60
2023-05-25T04:20:46.460Z,15.68
2023-05-25T04:23:12.907Z,8.50
2023-05-25T04:25:39.403Z,8.47
2023-05-25T04:28:08.366Z,15.55
2023-05-25T04:30:36.183Z,10.18
2023-05-25T04:33:03.068Z,9.30
2023-05-25T04:35:31.643Z,9.75
2023-05-25T04:38:00.642Z,11.17
2023-05-25T04:40:28.048Z,12.25
2023-05-25T04:42:55.847Z,11.73
2023-05-25T04:45:25.452Z,11.73
2023-05-25T04:47:52.593Z,11.70
2023-05-25T04:50:19.352Z,14.33
2023-05-25T04:52:45.855Z,14.13
2023-05-25T04:55:12.537Z,12.70
2023-05-25T04:57:39.476Z,15.05
2023-05-25T05:00:09.676Z,12.32
2023-05-25T05:02:38.106Z,9.43
2023-05-25T05:05:05.115Z,14.18
2023-05-25T05:07:31.748Z,12.68
2023-05-25T05:09:58.283Z,11.25
2023-05-25T05:12:24.782Z,14.18
2023-05-25T05:14:51.210Z,14.33
2023-05-25T05:17:17.724Z,13.98
2023-05-25T05:19:44.313Z,15.40
2023-05-25T05:22:13.225Z,15.52
2023-05-25T05:24:39.704Z,13.20
2023-05-25T05:27:06.195Z,15.40
2023-05-25T05:29:34.220Z,12.77
2023-05-25T05:32:00.909Z,16.65
2023-05-25T05:34:27.376Z,19.75
2023-05-25T05:36:57.907Z,13.10
2023-05-25T05:39:26.504Z,15.37
2023-05-25T05:41:53.874Z,14.57
2023-05-25T05:44:27.833Z,15.30
2023-05-25T05:47:02.033Z,16.02
2023-05-25T05:49:29.574Z,22.10
2023-05-25T05:51:56.534Z,16.40
2023-05-25T05:54:23.334Z,10.75
2023-05-25T05:56:50.929Z,14.70
2023-05-25T05:59:17.657Z,15.93
2023-05-25T06:01:44.296Z,17.92
2023-05-25T06:04:10.801Z,16.53
2023-05-25T06:06:37.730Z,15.65
2023-05-25T06:09:06.893Z,14.60
2023-05-25T06:11:37.584Z,15.25
2023-05-25T06:14:04.137Z,17.17
2023-05-25T06:16:30.959Z,16.30
2023-05-25T06:18:59.374Z,17.52
2023-05-25T06:21:26.230Z,14.18
2023-05-25T06:23:52.816Z,12.13
2023-05-25T06:26:19.348Z,15.43
2023-05-25T06:28:47.693Z,14.97
2023-05-25T06:31:14.240Z,14.75
2023-05-25T06:33:40.800Z,18.27
2023-05-25T06:36:08.798Z,15.50
2023-05-25T06:38:35.639Z,14.57
2023-05-25T06:41:03.566Z,16.90
2023-05-25T06:43:30.480Z,14.57
2023-05-25T06:45:56.984Z,12.13
2023-05-25T06:48:23.486Z,17.67
2023-05-25T06:50:49.996Z,13.70
2023-05-25T06:53:17.367Z,20.77
2023-05-25T06:55:44.467Z,14.63
2023-05-25T06:58:11.751Z,13.30
2023-05-25T07:00:38.250Z,16.27
2023-05-25T07:03:04.800Z,10.95
2023-05-25T07:05:31.322Z,9.73
2023-05-25T07:07:57.878Z,14.63
2023-05-25T07:10:24.335Z,16.25
2023-05-25T07:12:50.855Z,14.25
2023-05-25T07:15:17.469Z,11.82
2023-05-25T07:17:44.151Z,15.00
2023-05-25T07:20:13.247Z,11.88
2023-05-25T07:22:39.903Z,14.80
2023-05-25T07:25:06.922Z,12.52
2023-05-25T07:27:33.879Z,14.13
2023-05-25T07:30:00.363Z,9.87
2023-05-25T07:32:26.888Z,12.35
2023-05-25T07:34:54.134Z,8.35
2023-05-25T07:37:20.594Z,14.50
2023-05-25T07:39:47.121Z,10.65
2023-05-25T07:42:13.657Z,10.87
2023-05-25T07:44:40.094Z,12.77
2023-05-25T07:47:07.029Z,10.45
2023-05-25T07:49:33.715Z,10.63
2023-05-25T07:52:00.204Z,13.80
2023-05-25T07:54:26.672Z,13.20
2023-05-25T07:56:53.284Z,13.15
2023-05-25T07:59:19.734Z,12.50
2023-05-25T08:01:46.222Z,13.43
2023-05-25T08:04:13.010Z,17.38
2023-05-25T08:06:40.090Z,10.40
2023-05-25T08:09:07.956Z,14.82
2023-05-25T08:11:34.450Z,15.13
2023-05-25T08:14:00.945Z,10.60
2023-05-25T08:16:27.699Z,10.23
2023-05-25T08:18:54.300Z,11.93
2023-05-25T08:21:20.967Z,13.77
2023-05-25T08:23:47.954Z,11.45
2023-05-25T08:26:34.216Z,14.20
2023-05-25T08:29:02.387Z,11.30
2023-05-25T08:31:28.999Z,12.17
2023-05-25T08:33:55.608Z,10.15
2023-05-25T08:36:22.718Z,10.35
2023-05-25T08:38:49.158Z,8.55
2023-05-25T08:41:16.903Z,10.00
2023-05-25T08:43:43.569Z,11.30
2023-05-25T08:46:10.059Z,8.98
2023-05-25T08:48:42.457Z,12.90
2023-05-25T08:51:12.097Z,7.40
2023-05-25T08:53:41.236Z,11.25
2023-05-25T08:56:12.906Z,9.27
2023-05-25T08:58:53.064Z,14.18
2023-05-25T09:01:22.516Z,9.93
2023-05-25T09:03:50.233Z,8.80
2023-05-25T09:06:17.416Z,12.10
2023-05-25T09:08:44.983Z,11.00
2023-05-25T09:11:16.293Z,11.48
2023-05-25T09:13:43.550Z,8.48
2023-05-25T09:16:11.240Z,8.43
2023-05-25T09:18:37.776Z,10.40
2023-05-25T09:21:04.541Z,9.97
2023-05-25T09:23:31.389Z,11.95
2023-05-25T09:25:58.446Z,7.72
2023-05-25T09:28:27.422Z,10.32
2023-05-25T09:30:56.011Z,10.68
2023-05-25T09:33:22.829Z,9.13
2023-05-25T09:35:49.380Z,8.02
2023-05-25T09:38:17.280Z,11.32
2023-05-25T09:40:44.902Z,8.20
2023-05-25T09:43:17.246Z,8.70
2023-05-25T09:45:48.959Z,6.70
2023-05-25T09:48:15.630Z,5.97
2023-05-25T09:50:43.287Z,7.15
2023-05-25T09:53:11.076Z,11.10
2023-05-25T09:55:52.311Z,9.57
2023-05-25T09:58:23.768Z,7.03
2023-05-25T10:00:54.611Z,9.35
2023-05-25T10:03:21.800Z,9.57
2023-05-25T10:08:19.856Z,8.25
2023-05-25T10:10:49.842Z,8.50
2023-05-25T10:13:24.894Z,9.98
2023-05-25T10:15:54.598Z,6.72
2023-05-25T10:18:28.066Z,6.00
2023-05-25T10:21:03.178Z,6.45
2023-05-25T10:23:41.882Z,4.30
2023-05-25T10:26:09.915Z,9.70
2023-05-25T10:28:39.016Z,9.60
2023-05-25T10:31:05.918Z,10.02
2023-05-25T10:33:33.415Z,6.32
2023-05-25T10:36:09.942Z,6.20
2023-05-25T10:38:40.425Z,6.57
2023-05-25T10:41:10.884Z,9.95
2023-05-25T10:43:38.747Z,12.15
2023-05-25T10:46:08.915Z,6.32
2023-05-25T10:48:40.187Z,10.53
2023-05-25T10:51:08.985Z,6.20
2023-05-25T10:53:37.707Z,8.27
2023-05-25T10:56:06.411Z,9.18
2023-05-25T10:58:33.474Z,4.90
2023-05-25T11:01:01.506Z,5.37
2023-05-25T11:03:57.109Z,5.75
2023-05-25T11:06:40.449Z,6.38
2023-05-25T11:09:07.918Z,5.30
2023-05-25T11:11:43.489Z,5.22
2023-05-25T11:14:22.875Z,5.17
2023-05-25T11:17:18.214Z,6.45
2023-05-25T11:19:56.204Z,6.43
2023-05-25T11:22:35.402Z,8.35
2023-05-25T11:25:23.029Z,7.85
2023-05-25T11:27:51.040Z,9.63
2023-05-25T11:30:18.279Z,10.70
2023-05-25T11:32:51.132Z,11.75
2023-05-25T11:35:17.707Z,8.98
2023-05-25T11:37:50.820Z,8.55
2023-05-25T11:40:17.411Z,8.80
2023-05-25T11:42:48.328Z,7.05
2023-05-25T11:45:15.046Z,8.88
2023-05-25T11:47:41.726Z,10.30
2023-05-25T11:50:14.943Z,6.22
2023-05-25T11:52:41.591Z,6.53
2023-05-25T11:55:13.328Z,6.50
2023-05-25T11:57:40.620Z,7.93
2023-05-25T12:00:11.291Z,6.93
2023-05-25T12:02:39.504Z,6.82
2023-05-25T12:05:08.720Z,7.53
2023-05-25T12:07:44.015Z,6.47
2023-05-25T12:10:12.779Z,6.85
2023-05-25T12:12:42.550Z,9.30
2023-05-25T12:15:14.853Z,7.40
2023-05-25T12:17:43.427Z,7.73
2023-05-25T12:20:11.878Z,6.72
2023-05-25T12:22:40.108Z,5.80
2023-05-25T12:25:08.666Z,4.93
2023-05-25T12:27:35.205Z,7.75
2023-05-25T12:30:01.730Z,13.10
2023-05-25T12:32:28.368Z,11.52
2023-05-25T12:35:05.786Z,7.25
2023-05-25T12:37:33.487Z,11.65
2023-05-25T12:40:00.653Z,9.38
2023-05-25T12:42:27.549Z,9.50
2023-05-25T12:44:57.904Z,8.63
2023-05-25T12:47:27.894Z,12.27
2023-05-25T12:50:11.288Z,10.55
2023-05-25T12:52:39.889Z,9.45
2023-05-25T12:55:32.958Z,10.27
2023-05-25T12:58:02.735Z,9.73
2023-05-25T13:00:41.002Z,10.70
2023-05-25T13:03:08.294Z,12.93
2023-05-25T13:05:37.091Z,8.32
2023-05-25T13:08:04.448Z,13.40
2023-05-25T13:10:32.811Z,10.18
2023-05-25T13:13:00.613Z,11.85
2023-05-25T13:15:27.452Z,10.68
2023-05-25T13:17:56.284Z,14.23
2023-05-25T13:20:25.118Z,11.40
2023-05-25T13:22:53.141Z,9.98
2023-05-25T13:25:22.146Z,12.75
2023-05-25T13:27:50.480Z,11.90
2023-05-25T13:30:17.713Z,10.10
2023-05-25T13:32:44.929Z,12.97
2023-05-25T13:35:18.452Z,12.82
2023-05-25T13:37:45.870Z,14.40
2023-05-25T13:40:12.473Z,11.60
2023-05-25T13:42:38.986Z,16.23
2023-05-25T13:45:06.054Z,14.00
2023-05-25T13:47:32.770Z,12.98
2023-05-25T13:49:59.327Z,12.38
2023-05-25T13:52:27.005Z,13.02
2023-05-25T13:54:53.463Z,14.13
2023-05-25T13:57:21.359Z,9.97
2023-05-25T13:59:47.841Z,14.15
2023-05-25T14:02:14.525Z,11.23
2023-05-25T14:04:41.408Z,11.38
2023-05-25T14:07:07.917Z,20.33
2023-05-25T14:09:34.440Z,11.70
2023-05-25T14:12:01.524Z,14.25
2023-05-25T14:14:32.232Z,12.48
2023-05-25T14:17:00.387Z,11.82
2023-05-25T14:19:27.160Z,11.05
2023-05-25T14:22:11.106Z,13.00
2023-05-25T14:24:38.791Z,12.15
2023-05-25T14:27:07.116Z,17.02
2023-05-25T14:29:33.931Z,13.40
2023-05-25T14:32:00.619Z,11.02
2023-05-25T14:34:27.970Z,11.90
2023-05-25T14:36:54.467Z,11.68
2023-05-25T14:39:21.020Z,21.05
2023-05-25T14:41:47.523Z,13.38
2023-05-25T14:44:14.040Z,13.40
2023-05-25T14:46:40.720Z,11.13
2023-05-25T14:49:07.271Z,9.77
2023-05-25T14:51:33.721Z,14.45
2023-05-25T14:54:03.867Z,16.45
2023-05-25T14:56:30.692Z,11.55
2023-05-25T14:58:57.428Z,14.43
2023-05-25T15:01:25.499Z,16.35
2023-05-25T15:03:52.560Z,17.55
2023-05-25T15:06:19.533Z,14.88
2023-05-25T15:08:46.169Z,13.18
2023-05-25T15:11:12.715Z,15.50
2023-05-25T15:13:40.731Z,14.57
2023-05-25T15:16:11.243Z,17.30
2023-05-25T15:18:37.995Z,10.65
2023-05-25T15:21:04.612Z,13.80
2023-05-25T15:23:32.023Z,13.57
2023-05-25T15:26:03.101Z,17.92
2023-05-25T15:28:32.422Z,16.08
2023-05-25T15:31:01.717Z,12.32
2023-05-25T15:33:43.710Z,11.88
2023-05-25T15:36:15.138Z,14.60
2023-05-25T15:38:43.252Z,13.52
2023-05-25T15:41:09.878Z,11.85
2023-05-25T15:43:36.346Z,14.18
2023-05-25T15:46:02.844Z,10.52
2023-05-25T15:48:29.409Z,16.30
2023-05-25T15:50:55.866Z,18.33
2023-05-25T15:53:22.764Z,16.52
2023-05-25T15:55:49.241Z,15.88
2023-05-25T15:58:17.744Z,17.08
2023-05-25T16:00:44.265Z,18.47
2023-05-25T16:03:10.783Z,17.13
2023-05-25T16:05:37.444Z,13.32
2023-05-25T16:08:03.933Z,14.82
2023-05-25T16:10:30.483Z,18.38
2023-05-25T16:12:56.957Z,16.03
2023-05-25T16:15:23.743Z,19.85
2023-05-25T16:17:50.408Z,12.80
2023-05-25T16:20:17.015Z,19.80
2023-05-25T16:22:43.484Z,18.23
2023-05-25T16:25:10.472Z,15.10
2023-05-25T16:27:37.032Z,15.38
2023-05-25T16:30:03.916Z,17.67
2023-05-25T16:32:30.562Z,14.98
2023-05-25T16:34:57.028Z,13.98
2023-05-25T16:37:23.548Z,14.30
2023-05-25T16:39:50.042Z,11.88
2023-05-25T16:42:16.708Z,14.88
2023-05-25T16:44:43.185Z,14.45
2023-05-25T16:47:09.701Z,16.75
2023-05-25T16:49:36.172Z,13.60
2023-05-25T16:52:02.697Z,15.00
2023-05-25T16:54:29.617Z,16.50
2023-05-25T16:56:56.190Z,13.73
2023-05-25T16:59:22.695Z,15.20
2023-05-25T17:01:49.279Z,16.73
2023-05-25T17:04:15.958Z,17.70
2023-05-25T17:06:42.439Z,13.82
2023-05-25T17:09:09.189Z,16.92
2023-05-25T17:11:35.641Z,18.48
2023-05-25T17:14:02.099Z,12.10
2023-05-25T17:16:28.690Z,13.82
2023-05-25T17:18:55.350Z,16.80
2023-05-25T17:21:21.852Z,14.70
2023-05-25T17:23:49.153Z,14.43
2023-05-25T17:26:15.752Z,18.77
2023-05-25T17:28:42.237Z,17.45
2023-05-25T17:31:09.447Z,12.38
2023-05-25T17:33:36.104Z,11.75
2023-05-25T17:36:02.563Z,16.15
2023-05-25T17:38:29.049Z,15.43
2023-05-25T17:40:55.846Z,15.75
2023-05-25T17:43:22.477Z,15.15
2023-05-25T17:45:48.971Z,15.25
2023-05-25T17:48:15.799Z,19.80
2023-05-25T17:50:42.336Z,18.70
2023-05-25T17:53:08.873Z,18.65
2023-05-25T17:55:35.426Z,18.33
2023-05-25T17:58:01.929Z,19.67
2023-05-25T18:00:30.320Z,18.25
2023-05-25T18:02:56.872Z,19.67
2023-05-25T18:05:23.557Z,17.58
2023-05-25T18:07:50.124Z,23.23
2023-05-25T18:10:16.692Z,20.17
2023-05-25T18:12:46.096Z,18.35
2023-05-25T18:15:12.854Z,22.43
2023-05-25T18:17:39.400Z,12.93
2023-05-25T18:20:06.598Z,21.25
2023-05-25T18:22:33.134Z,18.33
2023-05-25T18:25:00.389Z,14.80
2023-05-25T18:27:26.856Z,14.07
2023-05-25T18:29:53.516Z,12.90
2023-05-25T18:32:20.116Z,18.88
2023-05-25T18:34:48.299Z,14.60
2023-05-25T18:37:15.227Z,15.88
2023-05-25T18:39:41.977Z,17.73
2023-05-25T18:42:08.759Z,15.90
2023-05-25T18:44:36.479Z,12.27
2023-05-25T18:47:02.947Z,16.98
2023-05-25T18:49:34.470Z,16.25
2023-05-25T18:52:01.622Z,18.60
2023-05-25T18:54:28.287Z,19.35
2023-05-25T18:56:55.003Z,15.13
2023-05-25T18:59:21.484Z,20.05
2023-05-25T19:01:48.170Z,19.48
2023-05-25T19:04:14.848Z,11.93
2023-05-25T19:06:41.544Z,16.13
2023-05-25T19:09:08.002Z,16.13
2023-05-25T19:11:34.495Z,12.68
2023-05-25T19:14:00.960Z,16.00
2023-05-25T19:16:27.551Z,14.30
2023-05-25T19:18:54.087Z,11.13
2023-05-25T19:21:20.689Z,15.98
2023-05-25T19:23:47.189Z,17.35
2023-05-25T19:26:13.711Z,18.05
2023-05-25T19:28:40.417Z,11.20
2023-05-25T19:31:06.885Z,16.73
2023-05-25T19:33:33.457Z,12.38
2023-05-25T19:36:00.109Z,10.95
2023-05-25T19:38:31.439Z,24.52
2023-05-25T19:41:04.285Z,20.10
2023-05-25T19:43:30.872Z,21.23
2023-05-25T19:45:57.441Z,16.92
2023-05-25T19:48:25.285Z,17.88
2023-05-25T19:50:53.172Z,19.60
2023-05-25T19:53:19.657Z,12.60
2023-05-25T19:55:46.380Z,16.88
2023-05-25T19:58:13.009Z,16.40
2023-05-25T20:00:39.491Z,17.90
2023-05-25T20:03:06.150Z,17.80
2023-05-25T20:05:32.743Z,14.70
2023-05-25T20:07:59.310Z,22.80
2023-05-25T20:10:25.888Z,21.17
2023-05-25T20:12:52.422Z,15.50
2023-05-25T20:15:18.896Z,14.88
2023-05-25T20:17:45.452Z,15.10
2023-05-25T20:20:12.154Z,15.48
2023-05-25T20:22:38.740Z,17.55
2023-05-25T20:25:05.633Z,18.13
2023-05-25T20:27:32.129Z,14.35
2023-05-25T20:29:58.669Z,14.03
2023-05-25T20:32:25.206Z,18.13
2023-05-25T20:34:52.227Z,12.40
2023-05-25T20:37:18.706Z,17.50
2023-05-25T20:39:45.295Z,13.15
2023-05-25T20:42:13.909Z,17.13
2023-05-25T20:44:40.537Z,12.18
2023-05-25T20:47:07.182Z,19.55
2023-05-25T20:49:33.718Z,19.65
2023-05-25T20:52:00.239Z,18.38
2023-05-25T20:54:26.881Z,15.37
2023-05-25T20:56:53.534Z,16.33
2023-05-25T20:59:20.121Z,18.80
2023-05-25T21:01:46.620Z,20.30
2023-05-25T21:04:13.258Z,19.40
2023-05-25T21:06:40.065Z,14.70
2023-05-25T21:09:06.576Z,17.02
2023-05-25T21:11:33.196Z,17.05
2023-05-25T21:13:59.675Z,16.92
2023-05-25T21:16:26.297Z,12.70
2023-05-25T21:18:52.773Z,13.23
2023-05-25T21:21:19.335Z,16.33
2023-05-25T21:23:46.072Z,14.82
2023-05-25T21:26:12.617Z,16.73
2023-05-25T21:28:39.071Z,17.70
2023-05-25T21:31:05.669Z,17.93
2023-05-25T21:33:35.762Z,14.85
2023-05-25T21:36:02.876Z,13.50
2023-05-25T21:38:29.418Z,14.38
2023-05-25T21:40:56.037Z,15.60
2023-05-25T21:43:22.567Z,22.37
2023-05-25T21:45:49.048Z,11.77
2023-05-25T21:48:15.541Z,15.18
2023-05-25T21:50:42.011Z,17.10
2023-05-25T21:53:08.468Z,17.73
2023-05-25T21:55:34.915Z,22.93
2023-05-25T21:58:01.405Z,27.00
2023-05-25T22:00:27.892Z,20.42
2023-05-25T22:02:54.508Z,11.30
2023-05-25T22:05:21.112Z,16.58
2023-05-25T22:07:47.677Z,21.20
2023-05-25T22:10:14.270Z,14.50
2023-05-25T22:12:40.792Z,17.98
2023-05-25T22:15:07.853Z,19.00
2023-05-25T22:17:34.424Z,16.60
2023-05-25T22:20:07.948Z,13.03
2023-05-25T22:22:34.777Z,15.10
2023-05-25T22:25:01.273Z,12.27
2023-05-25T22:27:27.907Z,14.02
2023-05-25T22:29:54.378Z,17.48
2023-05-25T22:32:21.041Z,15.07
2023-05-25T22:34:47.591Z,17.45
2023-05-25T22:37:14.219Z,14.20
2023-05-25T22:39:40.683Z,22.58
2023-05-25T22:42:07.338Z,18.52
2023-05-25T22:44:36.031Z,20.17
2023-05-25T22:47:03.012Z,19.48
2023-05-25T22:49:29.608Z,18.20
2023-05-25T22:51:56.147Z,16.52
2023-05-25T22:54:22.576Z,12.02
2023-05-25T22:56:49.047Z,18.47
2023-05-25T22:59:15.827Z,21.20
2023-05-25T23:01:42.617Z,15.82
2023-05-25T23:04:09.313Z,15.85
2023-05-25T23:06:36.573Z,15.32
2023-05-25T23:09:03.177Z,17.80
2023-05-25T23:11:29.623Z,19.58
2023-05-25T23:13:56.077Z,17.65
2023-05-25T23:16:22.708Z,15.70
2023-05-25T23:18:49.278Z,15.70
2023-05-25T23:21:16.180Z,15.83
2023-05-25T23:23:42.686Z,13.07
2023-05-25T23:26:09.153Z,17.90
2023-05-25T23:28:35.775Z,18.95
2023-05-25T23:31:02.307Z,20.30
2023-05-25T23:33:29.313Z,22.80
2023-05-25T23:35:55.968Z,18.45
2023-05-25T23:38:22.512Z,22.92
2023-05-25T23:40:48.970Z,14.50
2023-05-25T23:43:16.312Z,21.17
2023-05-25T23:45:43.115Z,15.77
2023-05-25T23:48:09.825Z,16.80
2023-05-25T23:50:36.414Z,15.90
2023-05-25T23:53:02.956Z,18.70
2023-05-25T23:55:30.592Z,16.15
2023-05-25T23:57:57.057Z,14.33
